Accueil
METAR-TAF:

METAR-TAF

Aéroports :

Aérodrome de Maradi

Maradi, Niger

latitude: 13-28N, longitude: 007-05E, altitude: 372 m

Observation

Le bulletin a été fait il y a 12 heures et 23 minutes, à 18:00 UTC
Vent 8 kt de est
Température 26°C
Humidité 10%
Pression 1016 hPa
Visibilité: 2000 m
poussière généralisée

METAR: DRRM 251800Z 10008KT 2000 DU NSC 26/M08 Q1016

Heure: 07:23 (06:23 UTC)


TAF: absent

Observations et prévisions météorologiques de plus de 4000 aéroports (messages METAR et TAF).

Les stations disponibles sont représentées par des disques jaunes et rouges sur la carte.

Passer la souris dessus pour voir le nom de la station.

Cliquer dessus pour voir les observations et prévisions météorologiques.

Pour changer de carte: cliquez sur les boutons verts avec une croix noire pour zoomer, sur le bouton vert avec un tiret pour effectuer un zoom arrière, ou sur les flèches vertes pour les cartes adjacentes.


METAR-TAF: